Time;durP1;ratioP1;P1;durP2;ratioP2;P2;SDS_P1;SDS_P2;PMS_P1;PMS_P2;Temp;Humidity;BMP_temperature;BMP_pressure;BME280_temperature;BME280_humidity;BME280_pressure;Samples;Min_cycle;Max_cycle;Signal;HPM_P1;HPM_P2
2022/09/12 00:01:22;;;;;;;19.25;15.45;;;;;;;14.28;100.00;101629.94;5051221;28;20041;-51
2022/09/12 00:03:52;;;;;;;19.25;15.00;;;;;;;14.29;100.00;101627.19;5052323;28;20449;-50
2022/09/12 00:06:22;;;;;;;21.55;16.52;;;;;;;14.35;100.00;101632.03;5051332;28;20063;-49
2022/09/12 00:08:50;;;;;;;20.33;15.45;;;;;;;14.35;100.00;101624.09;5050783;28;20053;-50
2022/09/12 00:11:20;;;;;;;20.85;15.93;;;;;;;14.32;100.00;101626.97;5051324;28;20052;-49
2022/09/12 00:13:48;;;;;;;18.10;15.13;;;;;;;14.27;100.00;101628.22;5051815;28;20087;-51
2022/09/12 00:16:17;;;;;;;21.75;15.88;;;;;;;14.30;100.00;101623.59;5050824;28;20135;-52
2022/09/12 00:18:46;;;;;;;20.20;15.18;;;;;;;14.22;100.00;101620.63;5051870;28;20041;-50
2022/09/12 00:21:15;;;;;;;19.40;15.25;;;;;;;14.10;100.00;101621.47;5050430;28;20045;-49
2022/09/12 00:23:44;;;;;;;22.17;16.02;;;;;;;14.10;100.00;101624.09;5050787;28;20053;-46
2022/09/12 00:26:12;;;;;;;19.88;14.98;;;;;;;14.08;100.00;101618.06;5051520;28;20077;-47
2022/09/12 00:28:42;;;;;;;18.73;15.13;;;;;;;14.04;100.00;101620.03;5051760;28;20084;-47
2022/09/12 00:31:12;;;;;;;19.92;15.60;;;;;;;14.13;100.00;101624.72;5050617;28;20099;-47
2022/09/12 00:33:41;;;;;;;19.90;15.68;;;;;;;13.98;100.00;101615.19;5050307;28;20522;-47
2022/09/12 00:36:16;;;;;;;19.80;15.32;;;;;;;13.97;100.00;101614.31;5050301;28;20064;-53
2022/09/12 00:38:44;;;;;;;22.20;14.88;;;;;;;14.07;100.00;101609.28;5051523;28;20037;-51
2022/09/12 00:41:16;;;;;;;18.70;15.40;;;;;;;13.96;100.00;101612.66;5050926;28;20045;-48
2022/09/12 00:43:47;;;;;;;18.30;13.93;;;;;;;13.85;100.00;101612.50;5050468;28;20049;-51
2022/09/12 00:46:27;;;;;;;16.85;12.77;;;;;;;13.98;100.00;101618.66;5050681;28;20376;-47
2022/09/12 00:48:59;;;;;;;15.02;12.18;;;;;;;13.98;100.00;101618.66;5050020;28;20091;-49
2022/09/12 00:51:30;;;;;;;16.15;11.70;;;;;;;13.86;100.00;101611.56;5049787;28;20041;-47
2022/09/12 00:54:00;;;;;;;15.63;11.57;;;;;;;13.85;100.00;101608.09;5049799;28;20055;-48
2022/09/12 00:56:29;;;;;;;16.02;11.85;;;;;;;13.77;100.00;101596.31;5050930;28;20055;-47
2022/09/12 00:59:05;;;;;;;15.27;11.43;;;;;;;13.71;100.00;101602.03;5050036;28;20055;-51
2022/09/12 01:01:33;;;;;;;14.52;11.80;;;;;;;13.77;100.00;101598.94;5049931;28;20045;-50
2022/09/12 01:04:02;;;;;;;16.95;12.25;;;;;;;13.69;100.00;101592.38;5051033;28;20057;-47
2022/09/12 01:06:35;;;;;;;17.27;13.02;;;;;;;13.61;100.00;101586.75;5049219;28;20376;-49
2022/09/12 01:09:03;;;;;;;;;;;;;;;13.67;100.00;101581.09;5051085;28;20068;-50
2022/09/12 01:11:34;;;;;;;16.95;12.77;;;;;;;13.65;100.00;101592.72;5048738;28;19925;-48
2022/09/12 01:14:03;;;;;;;16.05;13.38;;;;;;;13.69;100.00;101592.38;5050636;28;20559;-48
2022/09/12 01:16:31;;;;;;;18.50;12.85;;;;;;;13.61;100.00;101591.22;5047811;28;20053;-47
2022/09/12 01:19:17;;;;;;;16.83;12.50;;;;;;;13.54;100.00;101590.78;5050754;28;20044;-46
2022/09/12 01:21:56;;;;;;;18.40;13.98;;;;;;;13.56;100.00;101585.38;5049722;28;20143;-51
2022/09/12 01:24:59;;;;;;;18.45;14.43;;;;;;;13.58;100.00;101583.47;5049755;28;20120;-47
2022/09/12 01:27:42;;;;;;;18.70;14.40;;;;;;;13.55;100.00;101587.16;5050512;28;20123;-47
2022/09/12 01:30:23;;;;;;;19.35;13.27;;;;;;;13.51;100.00;101585.66;5048326;28;20065;-48
2022/09/12 01:33:14;;;;;;;16.27;12.70;;;;;;;13.55;100.00;101573.09;5050312;28;20045;-51
2022/09/12 01:35:50;;;;;;;17.85;13.13;;;;;;;13.49;100.00;101569.91;5048408;28;20061;-48
2022/09/12 01:38:27;;;;;;;17.45;13.27;;;;;;;13.47;100.00;101566.53;5050161;28;20075;-46
2022/09/12 01:41:03;;;;;;;17.25;13.05;;;;;;;13.42;100.00;101568.63;5050683;28;20076;-46
2022/09/12 01:43:36;;;;;;;17.23;13.15;;;;;;;13.37;100.00;101560.16;5050354;28;20079;-48
2022/09/12 01:46:13;;;;;;;17.27;12.98;;;;;;;13.44;100.00;101560.59;5049722;28;20081;-47
2022/09/12 01:48:46;;;;;;;17.92;13.20;;;;;;;13.40;100.00;101559.09;5050946;28;20051;-47
2022/09/12 01:51:21;;;;;;;21.02;15.20;;;;;;;13.31;100.00;101549.97;5049070;28;20059;-48
2022/09/12 01:53:54;;;;;;;21.88;15.32;;;;;;;13.34;100.00;101544.47;5050322;28;20131;-49
2022/09/12 01:56:25;;;;;;;;;;;;;;;13.25;100.00;101548.59;5049462;28;20076;-46
2022/09/12 01:58:58;;;;;;;20.45;14.82;;;;;;;13.30;100.00;101543.81;5050351;28;19967;-47
2022/09/12 02:01:30;;;;;;;21.23;15.40;;;;;;;13.19;100.00;101533.97;5049281;28;20053;-46
2022/09/12 02:04:07;;;;;;;21.10;14.05;;;;;;;13.14;100.00;101536.09;5050238;28;20068;-49
2022/09/12 02:06:44;;;;;;;19.23;13.32;;;;;;;13.13;100.00;101536.16;5049370;28;20099;-47
2022/09/12 02:09:18;;;;;;;21.25;14.05;;;;;;;13.15;100.00;101534.28;5048219;28;20099;-49
2022/09/12 02:11:48;;;;;;;17.75;13.15;;;;;;;13.19;100.00;101530.47;5050319;28;20120;-48
2022/09/12 02:14:21;;;;;;;19.00;14.02;;;;;;;13.14;100.00;101532.56;5050024;28;20037;-53
2022/09/12 02:16:55;;;;;;;20.02;14.10;;;;;;;13.22;100.00;101525.00;5049566;28;20085;-51
2022/09/12 02:19:27;;;;;;;18.05;13.45;;;;;;;13.21;100.00;101528.59;5050157;28;20045;-52
2022/09/12 02:22:00;;;;;;;18.30;13.68;;;;;;;13.09;100.00;101530.25;5048975;28;20393;-49
2022/09/12 02:24:30;;;;;;;18.02;13.85;;;;;;;13.06;100.00;101522.53;5050041;28;20127;-50
2022/09/12 02:27:04;;;;;;;21.73;14.20;;;;;;;13.06;100.00;101514.59;5050375;28;20048;-47
2022/09/12 02:29:32;;;;;;;19.48;14.32;;;;;;;13.03;100.00;101520.06;5049198;28;20068;-47
2022/09/12 02:32:07;;;;;;;22.80;16.25;;;;;;;12.94;100.00;101524.16;5049928;28;20149;-49
2022/09/12 02:34:48;;;;;;;22.02;15.90;;;;;;;12.91;100.00;101524.38;5049715;28;20037;-50
2022/09/12 02:37:25;;;;;;;23.77;17.10;;;;;;;12.97;100.00;101529.22;5053228;28;20053;-50
2022/09/12 02:39:54;;;;;;;26.23;17.30;;;;;;;13.04;100.00;101526.22;5052534;28;20057;-48
2022/09/12 02:42:25;;;;;;;27.50;19.13;;;;;;;12.99;100.00;101524.72;5053548;28;20045;-51
2022/09/12 02:44:55;;;;;;;24.45;18.02;;;;;;;12.98;100.00;101524.81;5052648;28;20518;-49
2022/09/12 02:47:30;;;;;;;24.95;18.33;;;;;;;12.97;100.00;101523.94;5052412;28;20051;-46
2022/09/12 02:49:59;;;;;;;22.55;17.23;;;;;;;12.91;100.00;101518.22;5053014;28;20127;-47
2022/09/12 02:52:28;;;;;;;24.65;18.08;;;;;;;12.82;100.00;101517.03;5053070;28;20049;-48
2022/09/12 02:55:00;;;;;;;22.98;16.77;;;;;;;12.80;100.00;101514.50;5053367;28;20507;-47
2022/09/12 02:57:28;;;;;;;23.52;17.17;;;;;;;12.81;100.00;101521.44;5053146;28;20523;-51
2022/09/12 02:59:59;;;;;;;23.65;17.48;;;;;;;12.72;100.00;101519.41;5053010;28;20047;-48
2022/09/12 03:02:39;;;;;;;23.05;17.13;;;;;;;12.74;100.00;101516.66;5051896;28;20434;-47
2022/09/12 03:05:20;;;;;;;29.05;18.40;;;;;;;12.78;100.00;101511.09;5052213;28;20503;-47
2022/09/12 03:08:11;;;;;;;23.73;16.83;;;;;;;12.76;100.00;101506.84;5051762;28;20163;-51
2022/09/12 03:10:49;;;;;;;22.65;17.10;;;;;;;12.81;100.00;101504.78;5052762;28;20104;-46
2022/09/12 03:13:25;;;;;;;21.80;16.00;;;;;;;12.83;100.00;101501.09;5052885;28;20044;-47
2022/09/12 03:16:07;;;;;;;22.23;16.52;;;;;;;12.75;100.00;101499.88;5052616;28;20049;-49
2022/09/12 03:18:50;;;;;;;21.25;16.00;;;;;;;12.72;100.00;101495.66;5053396;28;20044;-47
2022/09/12 03:21:22;;;;;;;;;;;;;;;12.71;100.00;101490.44;5051964;28;20131;-47
2022/09/12 03:24:05;;;;;;;21.70;15.88;;;;;;;12.67;100.00;101490.66;5053061;28;19920;-45
2022/09/12 03:26:40;;;;;;;23.10;15.82;;;;;;;12.62;100.00;101490.09;5052793;28;20039;-46
2022/09/12 03:29:11;;;;;;;22.10;15.52;;;;;;;12.65;100.00;101495.19;5052818;28;20056;-49
2022/09/12 03:31:49;;;;;;;22.00;16.50;;;;;;;12.60;100.00;101488.53;5052531;28;20140;-46
2022/09/12 03:34:18;;;;;;;22.98;15.75;;;;;;;12.63;100.00;101490.97;5052673;28;20088;-48
2022/09/12 03:36:47;;;;;;;24.10;15.27;;;;;;;12.62;100.00;101495.38;5051266;28;20554;-49
2022/09/12 03:39:19;;;;;;;24.98;16.20;;;;;;;12.63;100.00;101490.97;5052699;28;20041;-47
2022/09/12 03:41:47;;;;;;;21.52;16.55;;;;;;;12.63;100.00;101483.88;5052465;28;20392;-48
2022/09/12 03:44:15;;;;;;;21.38;16.17;;;;;;;12.61;100.00;101487.56;5052586;28;20041;-47
2022/09/12 03:46:43;;;;;;;24.65;17.02;;;;;;;12.53;100.00;101490.69;5051252;28;20080;-49
2022/09/12 03:49:11;;;;;;;22.95;16.95;;;;;;;12.57;100.00;101484.28;5050793;28;20091;-47
2022/09/12 03:51:44;;;;;;;21.17;16.20;;;;;;;12.59;100.00;101474.47;5051058;28;20116;-49
2022/09/12 03:54:12;;;;;;;21.42;15.70;;;;;;;12.60;100.00;101470.88;5050839;28;20494;-47
2022/09/12 03:56:40;;;;;;;22.45;15.95;;;;;;;12.63;100.00;101475.13;5052388;28;20155;-48
2022/09/12 03:59:08;;;;;;;21.48;15.77;;;;;;;12.59;100.00;101478.91;5052204;28;20057;-47
2022/09/12 04:01:37;;;;;;;19.85;14.80;;;;;;;12.54;100.00;101476.53;5051268;28;20041;-49
2022/09/12 04:04:05;;;;;;;21.40;15.60;;;;;;;12.54;100.00;101481.81;5051787;28;20037;-48
2022/09/12 04:06:33;;;;;;;20.50;15.18;;;;;;;12.54;100.00;101473.91;5050480;28;20098;-49
2022/09/12 04:09:05;;;;;;;21.60;15.77;;;;;;;12.53;100.00;101474.88;5052204;28;20495;-52
2022/09/12 04:11:34;;;;;;;19.08;14.50;;;;;;;12.51;100.00;101482.84;5052168;28;20060;-50
2022/09/12 04:14:02;;;;;;;19.95;15.10;;;;;;;12.52;100.00;101483.72;5052018;28;20454;-50
2022/09/12 04:16:31;;;;;;;18.95;14.23;;;;;;;12.53;100.00;101480.16;5051152;28;20045;-50
2022/09/12 04:18:59;;;;;;;20.58;14.98;;;;;;;12.53;100.00;101477.50;5052159;28;20048;-50
2022/09/12 04:21:27;;;;;;;20.40;14.38;;;;;;;12.52;100.00;101467.91;5049209;28;20041;-48
2022/09/12 04:23:55;;;;;;;20.20;14.57;;;;;;;12.52;100.00;101473.16;5050521;28;20041;-48
2022/09/12 04:26:28;;;;;;;21.05;14.18;;;;;;;12.47;100.00;101468.16;5051450;28;20041;-48
2022/09/12 04:28:56;;;;;;;21.85;15.15;;;;;;;12.48;100.00;101461.13;5051900;28;20124;-52
2022/09/12 04:31:27;;;;;;;23.73;15.50;;;;;;;12.44;100.00;101459.63;5050422;28;20068;-49
2022/09/12 04:33:56;;;;;;;21.02;16.30;;;;;;;12.44;100.00;101459.63;5051469;28;20133;-51
2022/09/12 04:36:24;;;;;;;21.17;14.93;;;;;;;12.45;100.00;101456.03;5050106;28;20052;-52
2022/09/12 04:38:53;;;;;;;24.33;17.02;;;;;;;12.45;100.00;101456.03;5051072;28;20041;-51
2022/09/12 04:41:23;;;;;;;24.60;16.98;;;;;;;12.46;100.00;101452.44;5050981;28;20052;-47
2022/09/12 04:43:57;;;;;;;22.92;16.58;;;;;;;12.54;100.00;101455.44;5051381;28;20510;-47
2022/09/12 04:46:26;;;;;;;22.02;16.10;;;;;;;12.49;100.00;101462.81;5050462;28;20052;-49
2022/09/12 04:48:54;;;;;;;20.92;15.45;;;;;;;12.45;100.00;101466.59;5051501;28;20406;-50
2022/09/12 04:51:26;;;;;;;21.55;15.80;;;;;;;12.51;100.00;101464.38;5049873;28;20037;-50
2022/09/12 04:53:56;;;;;;;22.85;15.20;;;;;;;12.46;100.00;101466.50;5051022;28;20049;-49
2022/09/12 04:56:25;;;;;;;21.98;16.15;;;;;;;12.49;100.00;101463.66;5050918;28;20059;-49
2022/09/12 04:58:57;;;;;;;19.63;15.75;;;;;;;12.52;100.00;101462.63;5050035;28;20080;-50
2022/09/12 05:01:28;;;;;;;25.55;17.15;;;;;;;12.55;100.00;101464.22;5050144;28;20104;-48
2022/09/12 05:03:58;;;;;;;21.85;15.95;;;;;;;12.59;100.00;101463.06;5050983;28;20044;-51
2022/09/12 05:06:29;;;;;;;22.05;16.02;;;;;;;12.68;100.00;101457.22;5049755;28;20454;-49
2022/09/12 05:08:58;;;;;;;25.80;16.35;;;;;;;12.66;100.00;101459.94;5050347;28;20484;-48
2022/09/12 05:11:29;;;;;;;22.65;16.50;;;;;;;12.70;100.00;101457.13;5050060;28;20547;-50
2022/09/12 05:14:18;;;;;;;23.65;16.58;;;;;;;12.64;100.00;101459.19;5050320;28;20041;-50
2022/09/12 05:16:46;;;;;;;21.88;16.08;;;;;;;12.59;100.00;101453.34;5049724;28;20045;-48
2022/09/12 05:19:17;;;;;;;24.30;16.63;;;;;;;12.64;100.00;101458.34;5050261;28;20067;-49
2022/09/12 05:21:45;;;;;;;25.23;16.33;;;;;;;12.70;100.00;101451.84;5049501;28;20041;-49
2022/09/12 05:24:16;;;;;;;24.75;17.35;;;;;;;12.73;100.00;101456.91;5050168;28;20124;-48
2022/09/12 05:26:44;;;;;;;23.98;17.15;;;;;;;12.78;100.00;101453.03;5050593;28;20128;-48
2022/09/12 05:29:12;;;;;;;26.23;18.13;;;;;;;12.76;100.00;101456.69;5048354;28;20458;-47
2022/09/12 05:31:41;;;;;;;24.00;17.33;;;;;;;12.80;100.00;101461.69;5050190;28;20056;-48
2022/09/12 05:34:10;;;;;;;27.05;16.98;;;;;;;12.83;100.00;101460.66;5050209;28;20514;-50
2022/09/12 05:36:38;;;;;;;26.70;17.38;;;;;;;12.87;100.00;101467.44;5048815;28;20053;-49
2022/09/12 05:39:06;;;;;;;26.48;18.60;;;;;;;12.92;100.00;101464.47;5050357;28;20045;-49
2022/09/12 05:41:35;;;;;;;26.23;18.52;;;;;;;12.89;100.00;101460.25;5048610;28;20106;-50
2022/09/12 05:44:05;;;;;;;26.63;18.33;;;;;;;12.93;100.00;101450.34;5050252;28;20041;-51
2022/09/12 05:46:37;;;;;;;24.35;18.45;;;;;;;13.07;100.00;101458.19;5049778;28;20049;-51
2022/09/12 05:49:09;;;;;;;28.17;18.70;;;;;;;13.01;100.00;101462.06;5050495;28;20099;-51
2022/09/12 05:51:41;;;;;;;28.90;18.63;;;;;;;13.04;100.00;101462.84;5048781;28;20419;-51
2022/09/12 05:54:13;;;;;;;29.00;19.25;;;;;;;13.04;100.00;101465.47;5049968;28;20507;-50
2022/09/12 05:56:43;;;;;;;26.13;18.55;;;;;;;13.07;100.00;101457.34;5050035;28;20053;-48
2022/09/12 05:59:13;;;;;;;27.33;19.05;;;;;;;13.12;100.00;101447.34;5049831;28;20255;-49
2022/09/12 06:01:42;;;;;;;30.63;19.75;;;;;;;13.12;100.00;101461.38;5049302;28;20048;-50
2022/09/12 06:04:11;;;;;;;30.75;20.05;;;;;;;13.14;100.00;101453.34;5049647;28;20067;-50
2022/09/12 06:06:43;;;;;;;30.40;21.23;;;;;;;13.22;100.00;101466.06;5048571;28;20131;-48
2022/09/12 06:09:13;;;;;;;33.57;21.43;;;;;;;13.26;100.00;101462.25;5049912;28;20053;-48
2022/09/12 06:11:41;;;;;;;31.95;21.73;;;;;;;13.31;100.00;101461.00;5053079;28;20088;-46
2022/09/12 06:14:11;;;;;;;33.47;22.40;;;;;;;13.32;100.00;101459.19;5054125;28;20124;-46
2022/09/12 06:16:40;;;;;;;31.45;21.60;;;;;;;13.36;100.00;101458.06;5053596;28;20454;-47
2022/09/12 06:19:16;;;;;;;38.33;22.20;;;;;;;13.38;100.00;101461.47;5053756;28;20091;-48
2022/09/12 06:21:45;;;;;;;36.13;22.33;;;;;;;13.44;100.00;101466.34;5052176;28;20056;-51
2022/09/12 06:24:13;;;;;;;32.88;21.70;;;;;;;13.44;100.00;101462.84;5053332;28;20403;-47
2022/09/12 06:26:42;;;;;;;35.45;22.20;;;;;;;13.51;100.00;101469.41;5053752;28;20545;-50
2022/09/12 06:29:12;;;;;;;32.15;20.67;;;;;;;13.49;100.00;101464.22;5054071;28;20488;-48
2022/09/12 06:31:42;;;;;;;35.13;22.35;;;;;;;13.57;100.00;101466.34;5053045;28;20051;-48
2022/09/12 06:34:12;;;;;;;34.70;23.15;;;;;;;13.59;100.00;101469.72;5053286;28;20114;-48
2022/09/12 06:36:44;;;;;;;35.72;24.02;;;;;;;13.65;100.00;101458.75;5052228;28;20052;-47
2022/09/12 06:39:13;;;;;;;38.03;24.23;;;;;;;13.69;100.00;101460.22;5053425;28;20514;-49
2022/09/12 06:41:42;;;;;;;39.92;23.25;;;;;;;13.73;100.00;101457.38;5053162;28;20537;-49
2022/09/12 06:44:13;;;;;;;36.55;24.77;;;;;;;13.77;100.00;101457.06;5053432;28;20048;-48
2022/09/12 06:46:45;;;;;;;37.65;23.85;;;;;;;13.81;100.00;101455.03;5052567;28;20810;-48
2022/09/12 06:49:13;;;;;;;35.63;24.80;;;;;;;13.89;100.00;101455.34;5053057;28;20455;-47
2022/09/12 06:51:43;;;;;;;38.88;25.85;;;;;;;13.86;100.00;101463.50;5052325;28;20514;-50
2022/09/12 06:54:13;;;;;;;42.75;26.40;;;;;;;13.87;100.00;101459.91;5052955;28;20501;-48
2022/09/12 06:56:41;;;;;;;35.92;23.70;;;;;;;13.93;100.00;101462.13;5053089;28;20136;-48
2022/09/12 06:59:10;;;;;;;33.95;22.30;;;;;;;13.93;100.00;101463.94;5053480;28;20500;-51
2022/09/12 07:01:38;;;;;;;33.20;21.38;;;;;;;13.96;100.00;101463.69;5053071;28;20553;-49
2022/09/12 07:04:07;;;;;;;32.25;21.20;;;;;;;14.00;100.00;101468.69;5053066;28;20045;-47
2022/09/12 07:06:37;;;;;;;32.15;20.85;;;;;;;14.08;100.00;101469.94;5052430;28;20037;-48
2022/09/12 07:09:11;;;;;;;32.50;22.05;;;;;;;14.12;100.00;101466.13;5053167;28;20041;-49
2022/09/12 07:11:41;;;;;;;35.20;23.23;;;;;;;14.24;100.00;101464.44;5053662;28;20075;-49
2022/09/12 07:14:12;;;;;;;40.92;25.73;;;;;;;14.35;100.00;101457.41;5053042;28;20106;-51
2022/09/12 07:16:41;;;;;;;40.20;26.50;;;;;;;14.53;100.00;101462.31;5052436;28;20045;-51
2022/09/12 07:19:10;;;;;;;39.55;26.17;;;;;;;14.61;100.00;101453.84;5053040;28;20517;-45
2022/09/12 07:21:41;;;;;;;44.25;30.25;;;;;;;14.75;100.00;101456.38;5051263;28;20480;-48
2022/09/12 07:24:10;;;;;;;57.00;31.45;;;;;;;14.96;100.00;101451.28;5052447;28;20191;-49
2022/09/12 07:26:40;;;;;;;60.20;35.08;;;;;;;15.06;100.00;101445.31;5052899;28;20049;-48
2022/09/12 07:29:14;;;;;;;60.22;36.50;;;;;;;15.16;100.00;101444.50;5052667;28;20565;-51
2022/09/12 07:32:04;;;;;;;57.08;34.75;;;;;;;15.18;100.00;101439.94;5052240;28;20048;-50
2022/09/12 07:34:32;;;;;;;54.42;33.83;;;;;;;15.29;100.00;101441.75;5052140;28;20140;-50
2022/09/12 07:37:00;;;;;;;59.75;33.75;;;;;;;15.35;100.00;101443.09;5050510;28;20057;-49
2022/09/12 07:39:29;;;;;;;53.85;34.28;;;;;;;15.34;100.00;101438.78;5051167;28;20061;-49
2022/09/12 07:42:00;;;;;;;56.58;36.15;;;;;;;15.42;100.00;101446.13;5052407;28;20057;-49
2022/09/12 07:44:28;;;;;;;55.55;35.10;;;;;;;15.69;100.00;101451.97;5052303;28;20049;-49
2022/09/12 07:46:56;;;;;;;57.55;35.67;;;;;;;15.89;100.00;101442.47;5052113;28;20514;-50
2022/09/12 07:49:24;;;;;;;50.35;35.47;;;;;;;16.04;100.00;101443.09;5052047;28;20136;-52
2022/09/12 07:51:52;;;;;;;52.38;34.58;;;;;;;16.21;100.00;101449.72;5051079;28;20037;-49
2022/09/12 07:54:23;;;;;;;54.10;33.35;;;;;;;16.39;100.00;101447.41;5051873;28;20426;-47
2022/09/12 07:56:53;;;;;;;51.33;34.75;;;;;;;16.62;100.00;101455.34;5052068;28;20106;-49
2022/09/12 07:59:21;;;;;;;54.42;35.15;;;;;;;16.80;100.00;101452.16;5052069;28;20423;-52
2022/09/12 08:02:13;;;;;;;52.92;34.47;;;;;;;16.84;100.00;101446.44;5051391;28;20107;-48
2022/09/12 08:04:44;;;;;;;49.95;33.10;;;;;;;16.98;100.00;101453.31;5051209;28;20868;-50
2022/09/12 08:07:15;;;;;;;47.83;32.17;;;;;;;17.01;100.00;101447.72;5051893;28;20045;-50
2022/09/12 08:09:43;;;;;;;50.30;32.97;;;;;;;17.03;100.00;101448.47;5050776;28;20135;-50
2022/09/12 08:12:12;;;;;;;46.78;32.28;;;;;;;17.08;100.00;101444.56;5051887;28;20048;-50
2022/09/12 08:14:40;;;;;;;46.10;31.50;;;;;;;17.08;100.00;101453.38;5051828;28;20072;-51
2022/09/12 08:17:08;;;;;;;47.70;32.33;;;;;;;17.25;100.00;101449.31;5051387;28;20390;-53
2022/09/12 08:19:37;;;;;;;43.03;30.80;;;;;;;17.44;100.00;101445.09;5051543;28;20106;-53
2022/09/12 08:22:05;;;;;;;43.42;31.52;;;;;;;17.73;100.00;101450.59;5050967;28;20175;-51
2022/09/12 08:24:33;;;;;;;45.33;31.50;;;;;;;17.90;100.00;101457.97;5051348;28;20509;-53
2022/09/12 08:27:01;;;;;;;41.60;30.17;;;;;;;18.07;100.00;101461.00;5050484;28;20169;-54
2022/09/12 08:29:40;;;;;;;42.08;29.08;;;;;;;18.18;100.00;101458.22;5051266;28;20049;-52
2022/09/12 08:32:08;;;;;;;42.67;30.20;;;;;;;18.39;100.00;101455.50;5050311;28;20143;-52
2022/09/12 08:34:36;;;;;;;38.30;27.70;;;;;;;18.53;100.00;101464.09;5050761;28;20407;-54
2022/09/12 08:37:04;;;;;;;35.90;26.77;;;;;;;18.71;100.00;101459.75;5050528;28;20045;-52
2022/09/12 08:39:32;;;;;;;32.78;24.35;;;;;;;18.78;100.00;101454.72;5050810;28;20049;-54
2022/09/12 08:42:02;;;;;;;35.20;24.92;;;;;;;18.93;100.00;101460.50;5051477;28;20095;-52
2022/09/12 08:44:57;;;;;;;33.75;25.02;;;;;;;19.04;100.00;101465.69;5050897;28;20517;-55
2022/09/12 08:47:28;;;;;;;36.00;25.10;;;;;;;19.26;100.00;101463.72;5050895;28;20048;-53
2022/09/12 08:50:04;;;;;;;34.92;25.38;;;;;;;19.41;100.00;101459.66;5050259;28;20885;-55
2022/09/12 08:52:38;;;;;;;36.58;25.63;;;;;;;19.61;100.00;101459.59;5050671;28;20076;-55
2022/09/12 08:55:12;;;;;;;41.33;25.73;;;;;;;19.83;100.00;101455.78;5050873;28;20052;-55
2022/09/12 08:57:40;;;;;;;34.10;24.25;;;;;;;20.03;100.00;101458.38;5049944;28;20049;-56
2022/09/12 09:00:21;;;;;;;32.97;23.58;;;;;;;20.17;100.00;101457.88;5050069;28;20072;-53
2022/09/12 09:03:06;;;;;;;30.20;21.98;;;;;;;20.40;100.00;101452.97;5048894;28;20049;-55
2022/09/12 09:05:46;;;;;;;31.85;21.30;;;;;;;20.65;100.00;101453.22;5049551;28;20132;-55
2022/09/12 09:08:33;;;;;;;45.22;24.88;;;;;;;20.72;97.83;101451.69;5050434;28;20071;-54
2022/09/12 09:11:13;;;;;;;42.90;23.23;;;;;;;20.90;97.05;101453.50;5050610;28;20124;-55
2022/09/12 09:16:44;;;;;;;27.10;20.40;;;;;;;21.33;93.69;101449.16;5049887;28;20041;-55
2022/09/12 09:19:16;;;;;;;25.63;19.20;;;;;;;21.52;91.58;101449.97;5049283;28;20057;-56
2022/09/12 09:21:50;;;;;;;24.33;18.30;;;;;;;21.63;88.85;101448.91;5049589;28;20049;-56
2022/09/12 09:24:24;;;;;;;23.10;17.38;;;;;;;21.77;88.98;101446.47;5050559;28;20442;-56
2022/09/12 09:26:58;;;;;;;23.15;16.85;;;;;;;22.05;88.63;101435.56;5050023;28;20040;-57
2022/09/12 09:29:30;;;;;;;21.40;16.58;;;;;;;22.15;87.42;101437.28;5049695;28;20065;-54
2022/09/12 09:32:04;;;;;;;20.42;15.88;;;;;;;22.30;89.19;101435.63;5048589;28;20053;-55
2022/09/12 09:34:32;;;;;;;23.52;16.48;;;;;;;22.55;85.18;101427.69;5048559;28;20057;-56
2022/09/12 09:37:09;;;;;;;22.35;15.82;;;;;;;22.72;84.00;101432.06;5049096;28;20037;-56
2022/09/12 09:39:50;;;;;;;18.40;15.02;;;;;;;22.74;81.85;101423.84;5050424;28;20483;-56
2022/09/12 09:42:27;;;;;;;23.88;16.45;;;;;;;22.89;81.95;101424.88;5050196;28;20057;-55
2022/09/12 09:44:59;;;;;;;21.55;16.45;;;;;;;23.15;82.17;101429.28;5049224;28;20091;-56
2022/09/12 09:47:29;;;;;;;20.05;15.90;;;;;;;23.46;81.77;101415.97;5048631;28;20056;-57
2022/09/12 09:49:57;;;;;;;18.42;15.10;;;;;;;23.68;78.58;101412.72;5049604;28;20056;-57
2022/09/12 09:52:29;;;;;;;21.00;14.68;;;;;;;23.88;77.36;101411.34;5048423;28;20084;-56
2022/09/12 09:54:59;;;;;;;20.55;15.50;;;;;;;23.77;76.88;101412.50;5050242;28;20514;-57
2022/09/12 09:57:45;;;;;;;19.58;14.55;;;;;;;24.01;76.07;101402.72;5048495;28;20084;-57
2022/09/12 10:00:30;;;;;;;18.75;14.13;;;;;;;24.24;77.06;101407.28;5049351;28;20384;-57
2022/09/12 10:03:06;;;;;;;19.05;13.63;;;;;;;24.39;75.51;101407.38;5050076;28;20049;-58
2022/09/12 10:05:46;;;;;;;15.98;12.13;;;;;;;24.57;75.22;101409.78;5049661;28;20452;-57
2022/09/12 10:08:21;;;;;;;22.52;14.15;;;;;;;24.92;77.05;101408.38;5050039;28;20045;-57
2022/09/12 10:10:54;;;;;;;19.95;13.38;;;;;;;25.24;74.58;101402.88;5050146;28;20048;-57
2022/09/12 10:13:27;;;;;;;16.05;12.40;;;;;;;25.29;70.69;101389.69;5049970;28;20080;-57
2022/09/12 10:15:58;;;;;;;16.42;12.00;;;;;;;25.44;70.06;101387.88;5049705;28;20049;-57
2022/09/12 10:18:42;;;;;;;13.25;9.88;;;;;;;25.65;68.50;101380.91;5049914;28;20067;-58
2022/09/12 10:21:17;;;;;;;14.77;11.15;;;;;;;25.93;65.95;101378.38;5048762;28;20076;-58
2022/09/12 10:23:47;;;;;;;16.60;11.10;;;;;;;26.01;66.62;101385.50;5049919;28;21121;-59
2022/09/12 10:26:19;;;;;;;16.80;12.00;;;;;;;26.05;65.93;101378.72;5049582;28;20055;-58
2022/09/12 10:28:51;;;;;;;18.30;11.53;;;;;;;26.28;69.87;101372.34;5050262;28;20041;-58
2022/09/12 10:31:27;;;;;;;17.67;11.15;;;;;;;26.59;66.62;101368.50;5049129;28;21039;-57
2022/09/12 10:33:59;;;;;;;14.45;11.35;;;;;;;26.70;65.19;101359.91;5050144;28;20123;-58
2022/09/12 10:36:37;;;;;;;15.57;10.57;;;;;;;26.75;63.17;101359.31;5048247;28;20112;-58
2022/09/12 10:39:06;;;;;;;15.43;10.15;;;;;;;26.97;62.18;101360.97;5048285;28;20068;-58
2022/09/12 10:41:39;;;;;;;12.50;8.50;;;;;;;27.20;59.44;101354.47;5048210;28;20148;-67
2022/09/12 10:44:16;;;;;;;11.93;6.72;;;;;;;26.82;58.20;101354.84;5049244;28;20045;-59
2022/09/12 10:46:44;;;;;;;8.13;5.13;;;;;;;27.10;55.22;101349.41;5049019;28;20072;-59
2022/09/12 10:49:21;;;;;;;7.13;4.10;;;;;;;27.21;55.21;101356.13;5049763;28;20069;-58
2022/09/12 10:51:51;;;;;;;8.13;5.57;;;;;;;27.06;52.85;101352.72;5046937;28;20088;-58
2022/09/12 10:54:21;;;;;;;6.82;4.03;;;;;;;27.62;54.48;101344.56;5049064;28;20055;-59
2022/09/12 10:57:05;;;;;;;7.30;4.10;;;;;;;27.98;50.84;101339.91;5050816;28;20060;-59
2022/09/12 10:59:51;;;;;;;7.53;4.88;;;;;;;28.26;49.74;101337.06;5053179;28;20372;-59
2022/09/12 11:02:27;;;;;;;6.63;4.22;;;;;;;28.48;50.11;101340.44;5052870;28;20061;-59
2022/09/12 11:05:06;;;;;;;8.13;4.03;;;;;;;28.60;46.86;101337.09;5052611;28;20049;-59
2022/09/12 11:07:41;;;;;;;8.32;4.07;;;;;;;28.61;48.73;101327.94;5052995;28;20075;-59
2022/09/12 11:10:28;;;;;;;7.90;4.88;;;;;;;28.79;46.31;101330.03;5052432;28;20069;-59
2022/09/12 11:13:18;;;;;;;6.63;4.68;;;;;;;28.43;46.27;101321.28;5052974;28;20503;-60
2022/09/12 11:16:09;;;;;;;10.85;5.05;;;;;;;28.76;46.38;101315.06;5052589;28;20063;-60
2022/09/12 11:19:04;;;;;;;20.48;5.75;;;;;;;28.90;46.56;101315.84;5053357;28;20120;-59
2022/09/12 11:21:51;;;;;;;14.90;4.82;;;;;;;29.13;44.64;101306.44;5051717;28;20068;-59
2022/09/12 11:24:34;;;;;;;6.95;4.00;;;;;;;29.53;44.21;101297.38;5052462;28;20452;-59
2022/09/12 11:27:19;;;;;;;9.00;4.25;;;;;;;29.48;43.90;101295.34;5053021;28;20454;-60
2022/09/12 11:29:49;;;;;;;6.35;4.00;;;;;;;28.97;44.08;101294.19;5052093;28;20130;-59
2022/09/12 11:33:04;;;;;;;7.40;4.28;;;;;;;29.01;44.09;101295.44;5052336;28;20136;-58